»·PEaware :: AAL225 KMSP-KSLC

AAL225 :: KMSP-KSLC

FLIGHT INFORMATION

Flight Status: Arrived
Operator:
American Airlines
More flights by this operator :: More flights under this callsign
Pilot: Michael R. (16974)
Aircraft: BOEING 737-800
(B738)
More flights by this aircraft type
Origin: KMSP Minneapolis-St Paul Intl
United States
Destination: KSLC Salt Lake City Intl
United States
More flights between these airports :: More routes between these airports
Route: SCHEP9 ONL DCT SNY J100 EKR LEEHY5
File this flight plan on PilotEdge
Remarks:
Altitude:
(Current/Filed)
34,000ft
Speed:
(Current/Filed)
450kts
Departed: 27-Apr-18 08:37 PM
Arrived: 27-Apr-18 10:00 PM
Distance/Time
Traveled:
860nm/1:23
Distance/Time
To Go:
Arrived

Flight Plot

Page will automatically refresh every two minutes.

Flight plan parsing failed; only flown route is shown


Map Options




Map Legend


Flown Route
Filed Route
Departure Airport
Arrival Airport
Navaid (VOR, NDB)
Fix

Horizontal Profiles

Position Reports

Time Latitude Longitude Heading Altitude Ground
Speed
27-Apr-18 20:35 41.425733 -101.275027 260 34135ft 441kts
27-Apr-18 20:36 41.396515 -101.427938 260 34135ft 441kts
27-Apr-18 20:37 41.366516 -101.585920 260 34135ft 441kts
27-Apr-18 20:38 41.336832 -101.743163 259 34139ft 441kts
27-Apr-18 20:39 41.307056 -101.902001 259 34139ft 442kts
27-Apr-18 20:40 41.277515 -102.060645 259 34138ft 442kts
27-Apr-18 20:41 41.248189 -102.219205 260 34137ft 442kts
27-Apr-18 20:42 41.218667 -102.377937 258 34142ft 445kts
27-Apr-18 20:43 41.187013 -102.536356 258 34145ft 445kts
27-Apr-18 20:44 41.155854 -102.691748 258 34150ft 445kts
27-Apr-18 20:45 41.124268 -102.849574 258 34149ft 446kts
27-Apr-18 20:46 41.092861 -103.008310 259 34148ft 445kts
27-Apr-18 20:47 41.061740 -103.167279 257 34148ft 446kts
27-Apr-18 20:48 41.028937 -103.325369 257 34147ft 446kts
27-Apr-18 20:49 40.996089 -103.483490 257 34146ft 446kts
27-Apr-18 20:50 40.963557 -103.641092 257 34146ft 446kts
27-Apr-18 20:51 40.932142 -103.794202 257 34150ft 446kts
27-Apr-18 20:52 40.900001 -103.951902 257 34157ft 446kts
27-Apr-18 20:53 40.868977 -104.105160 257 34153ft 446kts
27-Apr-18 20:54 40.837216 -104.263106 257 34153ft 446kts
27-Apr-18 20:55 40.805571 -104.421533 257 34152ft 446kts
27-Apr-18 20:56 40.774167 -104.579798 258 34135ft 446kts
27-Apr-18 20:57 40.743900 -104.733287 257 34177ft 447kts
27-Apr-18 20:58 40.713061 -104.890676 257 34137ft 446kts
27-Apr-18 20:59 40.682296 -105.048804 257 34136ft 446kts
27-Apr-18 21:00 40.651742 -105.206927 257 34135ft 446kts
27-Apr-18 21:01 40.621432 -105.364858 257 34135ft 446kts
27-Apr-18 21:02 40.591272 -105.523000 258 34135ft 446kts
27-Apr-18 21:03 40.561814 -105.678443 257 34149ft 446kts
27-Apr-18 21:04 40.532266 -105.835130 257 34255ft 446kts
27-Apr-18 21:05 40.500121 -105.992511 255 34228ft 447kts
27-Apr-18 21:06 40.465752 -106.143977 255 34228ft 447kts
27-Apr-18 21:07 40.430027 -106.299801 255 34272ft 445kts
27-Apr-18 21:08 40.394499 -106.455352 255 34327ft 445kts
27-Apr-18 21:09 40.359193 -106.610796 255 34327ft 445kts
27-Apr-18 21:10 40.325245 -106.761002 255 34331ft 445kts
27-Apr-18 21:11 40.290467 -106.915789 255 34330ft 444kts
27-Apr-18 21:12 40.255810 -107.070970 255 34326ft 444kts
27-Apr-18 21:13 40.221421 -107.225842 255 34139ft 444kts
27-Apr-18 21:14 40.187213 -107.380796 255 34136ft 444kts
27-Apr-18 21:15 40.153120 -107.536060 255 34118ft 444kts
27-Apr-18 21:16 40.120200 -107.686776 255 34130ft 444kts
27-Apr-18 21:17 40.086887 -107.839921 255 34129ft 444kts
27-Apr-18 21:18 40.070681 -107.997802 273 34127ft 442kts
27-Apr-18 21:19 40.077859 -108.157903 273 34128ft 442kts
27-Apr-18 21:20 40.084899 -108.317930 273 34127ft 442kts
27-Apr-18 21:21 40.091728 -108.477911 274 34046ft 442kts
27-Apr-18 21:22 40.098329 -108.637547 274 34043ft 442kts
27-Apr-18 21:23 40.104371 -108.789484 273 34047ft 442kts
27-Apr-18 21:24 40.110520 -108.949712 273 34046ft 442kts
27-Apr-18 21:25 40.116463 -109.110044 273 34045ft 442kts
27-Apr-18 21:26 40.122188 -109.270192 273 34042ft 443kts
27-Apr-18 21:27 40.127737 -109.431275 273 34035ft 443kts
27-Apr-18 21:28 40.133036 -109.591610 273 34035ft 443kts
27-Apr-18 21:29 40.137878 -109.745269 272 34064ft 443kts
27-Apr-18 21:30 40.142728 -109.905378 272 34064ft 443kts
27-Apr-18 21:31 40.147358 -110.066311 272 34063ft 443kts
27-Apr-18 21:32 40.148931 -110.227534 269 34062ft 443kts
27-Apr-18 21:33 40.147505 -110.388433 269 34062ft 445kts
27-Apr-18 21:34 40.145860 -110.549803 269 34056ft 439kts
27-Apr-18 21:35 40.144139 -110.699165 268 31984ft 429kts
27-Apr-18 21:36 40.142181 -110.853345 268 29721ft 419kts
27-Apr-18 21:37 40.140053 -111.003081 268 27460ft 406kts
27-Apr-18 21:38 40.137891 -111.145648 267 25274ft 384kts
27-Apr-18 21:39 40.135619 -111.283967 267 23029ft 377kts
27-Apr-18 21:40 40.133276 -111.416619 267 20999ft 368kts
27-Apr-18 21:41 40.132720 -111.547622 280 19110ft 354kts
27-Apr-18 21:42 40.170877 -111.660539 293 18975ft 359kts
27-Apr-18 21:43 40.214154 -111.777442 293 18228ft 359kts
27-Apr-18 21:44 40.257655 -111.895167 293 17384ft 357kts
27-Apr-18 21:45 40.326791 -111.983903 327 16281ft 354kts
27-Apr-18 21:46 40.413196 -112.047270 329 15097ft 357kts
27-Apr-18 21:47 40.512052 -112.065864 354 13263ft 359kts
27-Apr-18 21:48 40.610318 -112.077174 353 11421ft 352kts
27-Apr-18 21:49 40.705614 -112.088112 354 10999ft 339kts
27-Apr-18 21:50 40.793863 -112.098117 354 11001ft 313kts
27-Apr-18 21:51 40.880825 -112.107688 355 10850ft 317kts
27-Apr-18 21:52 40.965769 -112.115589 355 9064ft 289kts
27-Apr-18 21:53 41.029746 -112.086943 84 7295ft 251kts
27-Apr-18 21:54 40.994330 -112.021145 145 6005ft 207kts
27-Apr-18 21:55 40.945329 -112.014569 176 6029ft 179kts
27-Apr-18 21:56 40.895278 -112.009460 175 5973ft 182kts
27-Apr-18 21:57 40.847357 -112.003894 174 5025ft 159kts
27-Apr-18 21:58 40.805707 -111.999046 174 4249ft 148kts
27-Apr-18 21:59 40.787399 -111.995593 129 4235ft 6kts
27-Apr-18 22:00 40.787388 -111.995575 128 4235ft 0kts
27-Apr-18 22:01 40.787388 -111.995575 128 4235ft 0kts
27-Apr-18 22:02 40.787388 -111.995575 128 4235ft 0kts
27-Apr-18 22:03 40.787388 -111.995575 128 4235ft 0kts
27-Apr-18 22:04 40.787388 -111.995575 128 4235ft 0kts
27-Apr-18 22:05 40.787388 -111.995575 128 4235ft 0kts
27-Apr-18 22:06 40.787388 -111.995575 128 4235ft 0kts
27-Apr-18 22:07 40.787388 -111.995575 128 4235ft 0kts
27-Apr-18 22:08 40.787388 -111.995575 128 4235ft 0kts
27-Apr-18 22:09 40.787388 -111.995575 128 4235ft 0kts
27-Apr-18 22:10 40.787388 -111.995575 128 4235ft 0kts
27-Apr-18 22:11 40.787388 -111.995575 128 4235ft 0kts
27-Apr-18 22:12 40.787388 -111.995575 128 4235ft 0kts
27-Apr-18 22:13 40.787388 -111.995575 128 4235ft 0kts
27-Apr-18 22:14 40.787388 -111.995575 128 4235ft 0kts

Navigation Log

Ident Type
Flight plan parsing failed, navigation log unavailable